createdAt,value
2023-02-02T00:01:47.588Z,1.66
2023-02-02T00:04:24.983Z,1.71
2023-02-02T00:06:53.971Z,1.74
2023-02-02T00:09:22.024Z,1.77
2023-02-02T00:11:51.204Z,1.79
2023-02-02T00:14:19.610Z,1.80
2023-02-02T00:16:57.974Z,1.81
2023-02-02T00:19:30.523Z,1.80
2023-02-02T00:21:58.773Z,1.78
2023-02-02T00:24:27.046Z,1.77
2023-02-02T00:26:58.412Z,1.76
2023-02-02T00:29:29.396Z,1.75
2023-02-02T00:31:58.324Z,1.76
2023-02-02T00:34:26.297Z,1.78
2023-02-02T00:36:54.590Z,1.81
2023-02-02T00:39:26.369Z,1.83
2023-02-02T00:41:54.932Z,1.84
2023-02-02T00:45:01.487Z,1.85
2023-02-02T00:47:29.544Z,1.84
2023-02-02T00:49:57.717Z,1.84
2023-02-02T00:52:25.756Z,1.81
2023-02-02T00:54:53.854Z,1.79
2023-02-02T00:57:21.935Z,1.74
2023-02-02T00:59:49.978Z,1.72
2023-02-02T01:02:18.149Z,1.68
2023-02-02T01:04:46.759Z,1.68
2023-02-02T01:07:14.936Z,1.67
2023-02-02T01:09:43.106Z,1.65
2023-02-02T01:12:11.182Z,1.68
2023-02-02T01:14:39.352Z,1.67
2023-02-02T01:17:07.544Z,1.65
2023-02-02T01:19:36.001Z,1.57
2023-02-02T01:22:04.166Z,1.49
2023-02-02T01:24:32.545Z,1.42
2023-02-02T01:27:01.302Z,1.35
2023-02-02T01:29:29.507Z,1.26
2023-02-02T01:31:58.014Z,1.16
2023-02-02T01:34:26.378Z,1.09
2023-02-02T01:36:54.536Z,1.01
2023-02-02T01:39:23.225Z,0.94
2023-02-02T01:41:51.504Z,0.88
2023-02-02T01:44:51.424Z,0.81
2023-02-02T01:47:27.272Z,0.73
2023-02-02T01:49:56.262Z,0.69
2023-02-02T01:52:27.816Z,0.67
2023-02-02T01:55:08.677Z,0.63
2023-02-02T01:58:12.805Z,0.58
2023-02-02T02:00:45.057Z,0.55
2023-02-02T02:03:17.985Z,0.54
2023-02-02T02:06:14.912Z,0.57
2023-02-02T02:08:57.323Z,0.61
2023-02-02T02:11:25.958Z,0.67
2023-02-02T02:14:15.538Z,0.70
2023-02-02T02:17:18.038Z,0.73
2023-02-02T02:20:38.546Z,0.79
2023-02-02T02:23:28.325Z,0.80
2023-02-02T02:26:33.826Z,0.81
2023-02-02T02:29:45.160Z,0.86
2023-02-02T02:32:29.710Z,0.87
2023-02-02T02:35:31.374Z,0.82
2023-02-02T02:38:24.549Z,0.77
2023-02-02T02:41:01.310Z,0.72
2023-02-02T02:43:36.550Z,0.69
2023-02-02T02:46:05.588Z,0.65
2023-02-02T02:48:33.627Z,0.60
2023-02-02T02:51:26.566Z,0.57
2023-02-02T02:53:55.552Z,0.54
2023-02-02T02:56:38.369Z,0.53
2023-02-02T02:59:26.511Z,0.50
2023-02-02T03:02:26.543Z,0.47
2023-02-02T03:05:25.014Z,0.41
2023-02-02T03:08:08.346Z,0.37
2023-02-02T03:10:40.633Z,0.35
2023-02-02T03:13:10.853Z,0.31
2023-02-02T03:15:43.807Z,0.26
2023-02-02T03:18:13.987Z,0.22
2023-02-02T03:20:43.957Z,0.16
2023-02-02T03:23:13.561Z,0.07
2023-02-02T03:25:41.822Z,-0.03
2023-02-02T03:28:09.795Z,-0.09
2023-02-02T03:30:40.456Z,-0.14
2023-02-02T03:33:10.422Z,-0.19
2023-02-02T03:35:38.614Z,-0.25
2023-02-02T03:38:06.694Z,-0.30
2023-02-02T03:40:35.492Z,-0.36
2023-02-02T03:43:03.556Z,-0.41
2023-02-02T03:45:32.451Z,-0.45
2023-02-02T03:48:00.613Z,-0.48
2023-02-02T03:50:28.528Z,-0.54
2023-02-02T03:52:56.655Z,-0.61
2023-02-02T03:55:24.994Z,-0.66
2023-02-02T03:57:53.740Z,-0.67
2023-02-02T04:00:22.176Z,-0.68
2023-02-02T04:02:50.189Z,-0.69
2023-02-02T04:05:18.225Z,-0.70
2023-02-02T04:07:46.410Z,-0.67
2023-02-02T04:10:14.780Z,-0.61
2023-02-02T04:12:42.823Z,-0.58
2023-02-02T04:15:11.541Z,-0.53
2023-02-02T04:17:39.817Z,-0.45
2023-02-02T04:20:08.845Z,-0.38
2023-02-02T04:22:36.870Z,-0.33
2023-02-02T04:25:05.573Z,-0.31
2023-02-02T04:27:34.367Z,-0.25
2023-02-02T04:30:02.535Z,-0.23
2023-02-02T04:32:30.689Z,-0.22
2023-02-02T04:34:58.629Z,-0.21
2023-02-02T04:37:26.939Z,-0.16
2023-02-02T04:39:55.568Z,-0.02
2023-02-02T04:42:23.800Z,0.05
2023-02-02T04:44:51.882Z,0.07
2023-02-02T04:47:20.052Z,0.16
2023-02-02T04:49:48.005Z,0.22
2023-02-02T04:52:16.699Z,0.25
2023-02-02T04:54:44.967Z,0.31
2023-02-02T04:57:12.990Z,0.40
2023-02-02T04:59:42.470Z,0.47
2023-02-02T05:02:10.710Z,0.53
2023-02-02T05:04:38.717Z,0.58
2023-02-02T05:07:07.109Z,0.62
2023-02-02T05:09:35.341Z,0.64
2023-02-02T05:12:04.035Z,0.63
2023-02-02T05:14:32.196Z,0.67
2023-02-02T05:17:00.583Z,0.66
2023-02-02T05:19:28.640Z,0.60
2023-02-02T05:21:56.709Z,0.58
2023-02-02T05:24:24.892Z,0.56
2023-02-02T05:26:58.762Z,0.48
2023-02-02T05:29:30.912Z,0.39
2023-02-02T05:31:59.282Z,0.26
2023-02-02T05:34:27.424Z,0.14
2023-02-02T05:36:55.699Z,0.08
2023-02-02T05:39:23.718Z,0.04
2023-02-02T05:41:52.141Z,0.04
2023-02-02T05:44:20.314Z,0.05
2023-02-02T05:46:48.319Z,0.06
2023-02-02T05:49:16.258Z,0.05
2023-02-02T05:51:50.397Z,0.00
2023-02-02T05:54:20.756Z,-0.04
2023-02-02T05:56:51.924Z,-0.07
2023-02-02T05:59:20.771Z,-0.05
2023-02-02T06:01:49.312Z,-0.02
2023-02-02T06:04:17.544Z,0.01
2023-02-02T06:06:48.076Z,0.08
2023-02-02T06:09:16.167Z,0.05
2023-02-02T06:11:45.373Z,0.03
2023-02-02T06:14:13.548Z,0.03
2023-02-02T06:16:41.529Z,-0.00
2023-02-02T06:19:09.584Z,-0.02
2023-02-02T06:21:37.656Z,0.02
2023-02-02T06:24:06.336Z,-0.01
2023-02-02T06:26:34.347Z,-0.07
2023-02-02T06:29:03.092Z,-0.03
2023-02-02T06:31:31.548Z,-0.02
2023-02-02T06:34:00.457Z,0.00
2023-02-02T06:36:28.693Z,-0.00
2023-02-02T06:38:58.343Z,0.00
2023-02-02T06:41:26.516Z,0.06
2023-02-02T06:43:54.892Z,0.17
2023-02-02T06:46:23.051Z,0.25
2023-02-02T06:48:51.336Z,0.31
2023-02-02T06:51:20.029Z,0.35
2023-02-02T06:53:51.891Z,0.34
2023-02-02T06:56:20.092Z,0.36
2023-02-02T06:58:48.439Z,0.35
2023-02-02T07:01:16.669Z,0.34
2023-02-02T07:03:49.656Z,0.35
2023-02-02T07:06:20.743Z,0.37
2023-02-02T07:08:53.125Z,0.36
2023-02-02T07:11:35.554Z,0.32
2023-02-02T07:14:07.384Z,0.25
2023-02-02T07:16:35.864Z,0.19
2023-02-02T07:19:04.431Z,0.17
2023-02-02T07:21:36.318Z,0.16
2023-02-02T07:24:06.233Z,0.16
2023-02-02T07:26:36.321Z,0.17
2023-02-02T07:29:07.848Z,0.17
2023-02-02T07:31:36.997Z,0.21
2023-02-02T07:34:06.785Z,0.25
2023-02-02T07:36:35.988Z,0.29
2023-02-02T07:39:05.424Z,0.36
2023-02-02T07:41:37.250Z,0.43
2023-02-02T07:44:06.176Z,0.54
2023-02-02T07:46:34.249Z,0.64
2023-02-02T07:49:04.501Z,0.76
2023-02-02T07:51:32.593Z,0.87
2023-02-02T07:54:01.380Z,0.96
2023-02-02T07:56:29.656Z,1.08
2023-02-02T07:58:58.531Z,1.19
2023-02-02T08:01:28.624Z,1.26
2023-02-02T08:04:00.639Z,1.30
2023-02-02T08:06:34.864Z,1.37
2023-02-02T08:09:07.734Z,1.45
2023-02-02T08:11:37.668Z,1.52
2023-02-02T08:14:15.217Z,1.62
2023-02-02T08:16:43.291Z,1.71
2023-02-02T08:19:11.795Z,1.82
2023-02-02T08:21:39.961Z,2.01
2023-02-02T08:24:08.438Z,2.35
2023-02-02T08:26:36.661Z,2.76
2023-02-02T08:29:08.313Z,3.18
2023-02-02T08:31:43.071Z,3.35
2023-02-02T08:34:14.113Z,3.51
2023-02-02T08:36:42.314Z,3.50
2023-02-02T08:39:12.742Z,3.43
2023-02-02T08:41:40.904Z,3.40
2023-02-02T08:44:11.825Z,3.33
2023-02-02T08:46:40.852Z,3.23
2023-02-02T08:49:12.927Z,3.12
2023-02-02T08:51:42.277Z,3.08
2023-02-02T08:54:10.251Z,3.12
2023-02-02T08:56:40.603Z,3.30
2023-02-02T08:59:08.954Z,3.44
2023-02-02T09:01:38.218Z,3.57
2023-02-02T09:04:08.987Z,3.64
2023-02-02T09:06:39.705Z,3.62
2023-02-02T09:09:10.572Z,3.61
2023-02-02T09:11:39.329Z,3.97
2023-02-02T09:14:08.215Z,4.41
2023-02-02T09:16:36.792Z,4.80
2023-02-02T09:19:05.947Z,5.42
2023-02-02T09:21:37.230Z,5.95
2023-02-02T09:24:11.760Z,5.96
2023-02-02T09:26:40.815Z,5.66
2023-02-02T09:29:13.532Z,5.30
2023-02-02T09:31:42.484Z,4.92
2023-02-02T09:34:12.793Z,4.68
2023-02-02T09:36:42.188Z,4.47
2023-02-02T09:39:13.081Z,4.30
2023-02-02T09:41:41.308Z,4.23
2023-02-02T09:44:37.437Z,4.14
2023-02-02T09:47:18.158Z,3.99
2023-02-02T09:50:02.535Z,3.91
2023-02-02T09:52:45.676Z,3.91
2023-02-02T09:55:23.355Z,3.91
2023-02-02T09:58:01.920Z,3.85
2023-02-02T10:00:33.798Z,3.78
2023-02-02T10:03:07.436Z,3.86
2023-02-02T10:06:03.679Z,3.89
2023-02-02T10:08:41.168Z,3.83
2023-02-02T10:11:33.507Z,3.77
2023-02-02T10:14:15.260Z,3.58
2023-02-02T10:16:43.566Z,3.36
2023-02-02T10:19:14.533Z,3.20
2023-02-02T10:21:51.388Z,3.06
2023-02-02T10:24:23.019Z,2.96
2023-02-02T10:26:55.766Z,2.85
2023-02-02T10:29:23.783Z,2.82
2023-02-02T10:31:58.035Z,2.79
2023-02-02T10:34:32.314Z,2.84
2023-02-02T10:37:35.098Z,3.11
2023-02-02T10:40:32.673Z,3.76
2023-02-02T10:43:47.031Z,4.47
2023-02-02T10:46:35.561Z,5.12
2023-02-02T10:49:22.490Z,5.28
2023-02-02T10:51:58.141Z,5.21
2023-02-02T10:54:54.890Z,5.07
2023-02-02T10:57:36.464Z,4.83
2023-02-02T11:00:23.066Z,4.61
2023-02-02T11:02:53.249Z,4.43
2023-02-02T11:05:42.676Z,4.32
2023-02-02T11:08:18.675Z,4.28
2023-02-02T11:10:52.728Z,4.29
2023-02-02T11:13:35.860Z,4.33
2023-02-02T11:16:16.181Z,4.55
2023-02-02T11:18:45.148Z,4.77
2023-02-02T11:21:19.699Z,4.93
2023-02-02T11:23:53.396Z,5.15
2023-02-02T11:26:24.603Z,5.51
2023-02-02T11:28:58.343Z,5.88
2023-02-02T11:31:32.497Z,6.18
2023-02-02T11:34:20.562Z,6.31
2023-02-02T11:36:59.725Z,6.28
2023-02-02T11:39:28.236Z,6.14
2023-02-02T11:42:14.979Z,5.91
2023-02-02T11:44:48.209Z,5.63
2023-02-02T11:47:32.716Z,5.47
2023-02-02T11:50:04.363Z,5.25
2023-02-02T11:52:34.162Z,5.10
2023-02-02T11:55:09.807Z,5.00
2023-02-02T11:57:38.080Z,4.96
2023-02-02T12:00:08.754Z,4.93
2023-02-02T12:02:37.005Z,4.94
2023-02-02T12:05:10.942Z,4.90
2023-02-02T12:07:39.909Z,4.84
2023-02-02T12:10:28.964Z,4.83
2023-02-02T12:13:06.664Z,4.89
2023-02-02T12:15:52.981Z,5.18
2023-02-02T12:18:23.847Z,5.41
2023-02-02T12:21:14.584Z,5.58
2023-02-02T12:23:52.273Z,5.99
2023-02-02T12:26:30.955Z,6.29
2023-02-02T12:29:22.258Z,6.58
2023-02-02T12:32:09.121Z,6.85
2023-02-02T12:34:54.800Z,6.99
2023-02-02T12:37:37.994Z,6.94
2023-02-02T12:40:18.290Z,6.66
2023-02-02T12:43:11.763Z,6.51
2023-02-02T12:46:11.777Z,6.43
2023-02-02T12:48:46.093Z,6.27
2023-02-02T12:51:38.048Z,6.09
2023-02-02T12:54:34.811Z,5.91
2023-02-02T12:57:12.365Z,5.84
2023-02-02T12:59:59.374Z,6.11
2023-02-02T13:02:39.431Z,6.26
2023-02-02T13:05:23.861Z,6.17
2023-02-02T13:07:58.609Z,6.26
2023-02-02T13:10:29.750Z,6.33
2023-02-02T13:13:09.082Z,6.19
2023-02-02T13:15:41.483Z,6.05
2023-02-02T13:18:21.716Z,5.90
2023-02-02T13:20:58.684Z,5.78
2023-02-02T13:23:35.593Z,5.77
2023-02-02T13:26:10.082Z,5.71
2023-02-02T13:28:43.694Z,5.64
2023-02-02T13:31:18.113Z,5.59
2023-02-02T13:33:55.290Z,5.49
2023-02-02T13:36:29.912Z,5.35
2023-02-02T13:39:02.087Z,5.28
2023-02-02T13:41:31.706Z,5.18
2023-02-02T13:44:15.255Z,5.01
2023-02-02T13:46:48.305Z,4.86
2023-02-02T13:49:35.836Z,4.71
2023-02-02T13:52:20.907Z,4.55
2023-02-02T13:55:20.115Z,4.41
2023-02-02T13:57:53.229Z,4.24
2023-02-02T14:00:25.425Z,4.11
2023-02-02T14:03:06.455Z,4.02
2023-02-02T14:05:38.392Z,3.95
2023-02-02T14:08:08.614Z,3.89
2023-02-02T14:10:38.041Z,3.84
2023-02-02T14:14:00.487Z,3.82
2023-02-02T14:16:31.472Z,3.79
2023-02-02T14:19:01.469Z,3.76
2023-02-02T14:21:32.774Z,3.72
2023-02-02T14:24:21.114Z,3.72
2023-02-02T14:26:57.902Z,3.69
2023-02-02T14:29:30.354Z,3.66
2023-02-02T14:32:29.496Z,3.63
2023-02-02T14:35:08.281Z,3.59
2023-02-02T14:37:47.530Z,3.57
2023-02-02T14:40:15.487Z,3.52
2023-02-02T14:43:23.698Z,3.47
2023-02-02T14:46:13.881Z,3.42
2023-02-02T14:49:07.649Z,3.37
2023-02-02T14:51:47.417Z,3.33
2023-02-02T14:54:24.473Z,3.33
2023-02-02T14:56:59.272Z,3.33
2023-02-02T14:59:38.139Z,3.31
2023-02-02T15:02:29.934Z,3.30
2023-02-02T15:05:29.281Z,3.29
2023-02-02T15:08:13.934Z,3.28
2023-02-02T15:10:50.389Z,3.27
2023-02-02T15:13:21.438Z,3.25
2023-02-02T15:15:53.919Z,3.23
2023-02-02T15:18:41.020Z,3.21
2023-02-02T15:21:14.417Z,3.19
2023-02-02T15:23:45.575Z,3.17
2023-02-02T15:26:27.622Z,3.13
2023-02-02T15:29:01.837Z,3.10
2023-02-02T15:31:46.381Z,3.08
2023-02-02T15:34:40.927Z,3.05
2023-02-02T15:37:15.598Z,3.00
2023-02-02T15:39:49.220Z,2.93
2023-02-02T15:42:53.170Z,2.85
2023-02-02T15:45:46.345Z,2.76
2023-02-02T15:48:22.471Z,2.63
2023-02-02T15:50:55.973Z,2.50
2023-02-02T15:53:34.295Z,2.39
2023-02-02T15:56:23.453Z,2.30
2023-02-02T15:58:57.037Z,2.21
2023-02-02T16:01:26.766Z,2.12
2023-02-02T16:04:19.901Z,2.04
2023-02-02T16:06:49.323Z,1.93
2023-02-02T16:09:32.946Z,1.84
2023-02-02T16:12:04.228Z,1.70
2023-02-02T16:14:38.199Z,1.55
2023-02-02T16:17:27.479Z,1.44
2023-02-02T16:20:12.945Z,1.24
2023-02-02T16:22:42.265Z,1.07
2023-02-02T16:25:16.062Z,0.91
2023-02-02T16:27:47.884Z,0.78
2023-02-02T16:30:25.210Z,0.68
2023-02-02T16:32:53.336Z,0.59
2023-02-02T16:35:41.008Z,0.52
2023-02-02T16:38:22.560Z,0.49
2023-02-02T16:41:21.401Z,0.51
2023-02-02T16:43:49.456Z,0.61
2023-02-02T16:46:47.857Z,0.68
2023-02-02T16:49:23.283Z,0.72
2023-02-02T16:52:10.243Z,0.77
2023-02-02T16:54:43.490Z,0.80
2023-02-02T16:57:24.229Z,0.88
2023-02-02T16:59:55.757Z,0.96
2023-02-02T17:02:32.101Z,0.95
2023-02-02T17:05:19.107Z,0.89
2023-02-02T17:07:54.222Z,0.84
2023-02-02T17:10:24.730Z,0.81
2023-02-02T17:12:53.336Z,0.84
2023-02-02T17:15:29.144Z,0.83
2023-02-02T17:17:58.102Z,0.72
2023-02-02T17:20:27.673Z,0.64
2023-02-02T17:23:06.975Z,0.64
2023-02-02T17:25:43.188Z,0.70
2023-02-02T17:28:14.699Z,0.74
2023-02-02T17:30:44.812Z,0.74
2023-02-02T17:33:18.548Z,0.73
2023-02-02T17:35:55.019Z,0.77
2023-02-02T17:38:25.412Z,0.82
2023-02-02T17:40:55.396Z,0.86
2023-02-02T17:43:23.512Z,0.89
2023-02-02T17:45:52.136Z,0.90
2023-02-02T17:48:21.101Z,0.94
2023-02-02T17:50:49.587Z,0.98
2023-02-02T17:53:21.217Z,1.01
2023-02-02T17:55:51.630Z,1.00
2023-02-02T17:58:19.942Z,0.97
2023-02-02T18:00:54.064Z,0.94
2023-02-02T18:03:34.289Z,0.94
2023-02-02T18:06:03.188Z,0.95
2023-02-02T18:08:32.715Z,1.00
2023-02-02T18:11:01.082Z,1.05
2023-02-02T18:13:29.093Z,1.09
2023-02-02T18:15:57.392Z,1.12
2023-02-02T18:18:27.501Z,1.15
2023-02-02T18:20:55.699Z,1.16
2023-02-02T18:23:24.713Z,1.18
2023-02-02T18:25:53.182Z,1.19
2023-02-02T18:28:21.589Z,1.20
2023-02-02T18:30:49.949Z,1.24
2023-02-02T18:33:20.048Z,1.29
2023-02-02T18:35:48.636Z,1.38
2023-02-02T18:38:18.180Z,1.49
2023-02-02T18:40:55.334Z,1.60
2023-02-02T18:43:23.517Z,1.72
2023-02-02T18:46:08.950Z,1.82
2023-02-02T18:48:37.376Z,1.92
2023-02-02T18:51:07.442Z,1.98
2023-02-02T18:53:36.064Z,2.03
2023-02-02T18:56:05.987Z,2.09
2023-02-02T18:58:35.176Z,2.13
2023-02-02T19:01:17.238Z,2.17
2023-02-02T19:03:50.730Z,2.19
2023-02-02T19:06:38.198Z,2.21
2023-02-02T19:09:06.781Z,2.23
2023-02-02T19:11:45.196Z,2.25
2023-02-02T19:14:13.367Z,2.26
2023-02-02T19:16:42.560Z,2.27
2023-02-02T19:19:24.448Z,2.27
2023-02-02T19:21:58.369Z,2.26
2023-02-02T19:24:34.418Z,2.24
2023-02-02T19:27:02.960Z,2.22
2023-02-02T19:29:35.990Z,2.22
2023-02-02T19:32:18.272Z,2.22
2023-02-02T19:34:47.177Z,2.21
2023-02-02T19:37:18.124Z,2.21
2023-02-02T19:39:47.357Z,2.20
2023-02-02T19:42:15.512Z,2.19
2023-02-02T19:44:43.566Z,2.18
2023-02-02T19:47:21.482Z,2.16
2023-02-02T19:49:49.645Z,2.14
2023-02-02T19:52:24.657Z,2.10
2023-02-02T19:54:53.955Z,2.05
2023-02-02T19:57:38.737Z,2.03
2023-02-02T20:00:24.575Z,2.00
2023-02-02T20:02:56.490Z,1.99
2023-02-02T20:05:32.945Z,1.95
2023-02-02T20:08:19.462Z,1.91
2023-02-02T20:10:47.620Z,1.87
2023-02-02T20:13:20.403Z,1.85
2023-02-02T20:15:50.839Z,1.83
2023-02-02T20:18:48.713Z,1.81
2023-02-02T20:21:42.368Z,1.82
2023-02-02T20:24:37.285Z,1.84
2023-02-02T20:27:16.903Z,1.85
2023-02-02T20:29:48.074Z,1.87
2023-02-02T20:32:26.800Z,1.89
2023-02-02T20:34:57.616Z,1.91
2023-02-02T20:37:29.310Z,1.91
2023-02-02T20:40:02.099Z,1.88
2023-02-02T20:42:30.628Z,1.81
2023-02-02T20:44:58.996Z,1.75
2023-02-02T20:47:27.146Z,1.71
2023-02-02T20:49:57.403Z,1.68
2023-02-02T20:52:26.596Z,1.63
2023-02-02T20:54:54.821Z,1.56
2023-02-02T20:57:23.443Z,1.51
2023-02-02T20:59:57.665Z,1.46
2023-02-02T21:02:26.947Z,1.40
2023-02-02T21:04:55.241Z,1.37
2023-02-02T21:07:23.510Z,1.33
2023-02-02T21:09:51.681Z,1.28
2023-02-02T21:12:24.449Z,1.26
2023-02-02T21:14:55.854Z,1.22
2023-02-02T21:17:24.150Z,1.19
2023-02-02T21:19:52.780Z,1.16
2023-02-02T21:22:20.794Z,1.12
2023-02-02T21:24:48.814Z,1.09
2023-02-02T21:27:17.051Z,1.07
2023-02-02T21:29:45.050Z,1.08
2023-02-02T21:32:13.098Z,1.09
2023-02-02T21:34:41.710Z,1.06
2023-02-02T21:37:15.622Z,1.03
2023-02-02T21:39:52.116Z,1.03
2023-02-02T21:42:22.513Z,1.03
2023-02-02T21:45:03.277Z,1.05
2023-02-02T21:47:36.173Z,1.09
2023-02-02T21:50:19.872Z,1.12
2023-02-02T21:52:47.978Z,1.12
2023-02-02T21:55:37.363Z,1.08
2023-02-02T21:58:20.992Z,1.02
2023-02-02T22:00:50.398Z,0.91
2023-02-02T22:03:27.258Z,0.83
2023-02-02T22:06:21.484Z,0.79
2023-02-02T22:08:51.565Z,0.73
2023-02-02T22:11:29.655Z,0.66
2023-02-02T22:14:21.517Z,0.60
2023-02-02T22:16:53.257Z,0.59
2023-02-02T22:19:32.609Z,0.57
2023-02-02T22:22:09.764Z,0.56
2023-02-02T22:24:37.934Z,0.56
2023-02-02T22:27:19.613Z,0.55
2023-02-02T22:29:47.767Z,0.56
2023-02-02T22:32:16.089Z,0.56
2023-02-02T22:34:44.356Z,0.57
2023-02-02T22:37:12.530Z,0.57
2023-02-02T22:39:42.944Z,0.55
2023-02-02T22:42:10.997Z,0.53
2023-02-02T22:44:39.028Z,0.52
2023-02-02T22:47:07.168Z,0.51
2023-02-02T22:49:35.207Z,0.50
2023-02-02T22:52:03.457Z,0.50
2023-02-02T22:54:31.444Z,0.49
2023-02-02T22:56:59.548Z,0.49
2023-02-02T22:59:27.828Z,0.50
2023-02-02T23:01:55.893Z,0.52
2023-02-02T23:04:24.061Z,0.54
2023-02-02T23:06:52.295Z,0.55
2023-02-02T23:09:20.447Z,0.57
2023-02-02T23:11:49.488Z,0.60
2023-02-02T23:14:17.786Z,0.60
2023-02-02T23:16:46.073Z,0.60
2023-02-02T23:19:14.544Z,0.59
2023-02-02T23:21:42.511Z,0.59
2023-02-02T23:24:10.584Z,0.58
2023-02-02T23:26:38.649Z,0.58
2023-02-02T23:29:06.823Z,0.59
2023-02-02T23:31:34.991Z,0.60
2023-02-02T23:34:03.407Z,0.62
2023-02-02T23:36:31.334Z,0.66
2023-02-02T23:38:59.721Z,0.70
2023-02-02T23:41:28.077Z,0.74
2023-02-02T23:43:56.168Z,0.77
2023-02-02T23:46:24.799Z,0.81
2023-02-02T23:48:54.082Z,0.86
2023-02-02T23:51:22.334Z,0.90
2023-02-02T23:53:50.500Z,0.92
2023-02-02T23:56:18.671Z,0.93
2023-02-02T23:58:46.723Z,0.96
